createdAt,value
2023-02-17T00:02:35.037Z,9.20
2023-02-17T00:05:39.721Z,8.80
2023-02-17T00:08:41.624Z,7.60
2023-02-17T00:11:43.641Z,9.05
2023-02-17T00:14:45.560Z,7.63
2023-02-17T00:17:47.509Z,8.70
2023-02-17T00:20:49.793Z,9.63
2023-02-17T00:23:52.443Z,7.88
2023-02-17T00:29:56.649Z,9.15
2023-02-17T00:32:59.440Z,7.35
2023-02-17T00:36:07.005Z,8.00
2023-02-17T00:39:09.441Z,7.63
2023-02-17T00:42:11.382Z,7.13
2023-02-17T00:45:14.608Z,9.10
2023-02-17T00:48:16.654Z,9.68
2023-02-17T00:51:20.577Z,8.23
2023-02-17T00:54:22.611Z,8.23
2023-02-17T00:57:24.618Z,8.80
2023-02-17T01:00:26.634Z,9.73
2023-02-17T01:03:29.246Z,13.70
2023-02-17T01:09:38.514Z,7.75
2023-02-17T01:12:40.553Z,8.50
2023-02-17T01:15:54.209Z,8.68
2023-02-17T01:18:57.504Z,11.70
2023-02-17T01:25:02.393Z,7.03
2023-02-17T01:28:04.839Z,7.82
2023-02-17T01:31:09.486Z,7.55
2023-02-17T01:34:13.149Z,7.93
2023-02-17T01:37:15.087Z,8.77
2023-02-17T01:40:18.190Z,8.25
2023-02-17T01:43:20.256Z,9.18
2023-02-17T01:46:22.166Z,9.18
2023-02-17T01:49:36.785Z,8.10
2023-02-17T01:52:39.970Z,8.23
2023-02-17T01:55:42.883Z,7.53
2023-02-17T01:58:50.632Z,9.82
2023-02-17T02:01:57.125Z,7.38
2023-02-17T02:05:00.379Z,9.68
2023-02-17T02:08:02.515Z,9.93
2023-02-17T02:11:08.533Z,8.52
2023-02-17T02:14:11.493Z,9.25
2023-02-17T02:17:25.726Z,7.32
2023-02-17T02:20:36.512Z,8.02
2023-02-17T02:23:47.751Z,7.45
2023-02-17T02:27:26.740Z,8.43
2023-02-17T02:30:47.502Z,7.53
2023-02-17T02:33:55.599Z,6.43
2023-02-17T02:37:14.112Z,7.80
2023-02-17T02:40:19.813Z,9.82
2023-02-17T02:43:24.060Z,9.30
2023-02-17T02:46:26.116Z,7.45
2023-02-17T02:49:29.594Z,6.03
2023-02-17T02:52:52.756Z,7.50
2023-02-17T02:56:19.465Z,8.95
2023-02-17T02:59:21.475Z,8.00
2023-02-17T03:02:45.184Z,6.15
2023-02-17T03:06:17.195Z,7.80
2023-02-17T03:09:26.012Z,8.63
2023-02-17T03:12:28.782Z,6.18
2023-02-17T03:15:33.595Z,8.98
2023-02-17T03:18:37.316Z,6.70
2023-02-17T03:21:50.960Z,5.85
2023-02-17T03:24:56.495Z,8.13
2023-02-17T03:27:59.851Z,5.63
2023-02-17T03:31:01.951Z,7.07
2023-02-17T03:34:04.877Z,6.88
2023-02-17T03:37:07.143Z,8.68
2023-02-17T03:40:10.164Z,7.40
2023-02-17T03:43:12.166Z,9.35
2023-02-17T03:46:15.630Z,5.95
2023-02-17T03:49:21.739Z,8.43
2023-02-17T03:52:23.791Z,6.97
2023-02-17T03:55:25.798Z,6.20
2023-02-17T03:58:27.866Z,7.72
2023-02-17T04:01:30.119Z,6.97
2023-02-17T04:04:32.165Z,7.75
2023-02-17T04:07:34.252Z,7.25
2023-02-17T04:10:36.228Z,6.78
2023-02-17T04:13:39.095Z,6.00
2023-02-17T04:16:41.037Z,6.47
2023-02-17T04:19:43.087Z,8.23
2023-02-17T04:22:45.033Z,8.48
2023-02-17T04:25:47.700Z,7.13
2023-02-17T04:28:49.762Z,9.05
2023-02-17T04:31:51.752Z,7.82
2023-02-17T04:34:53.742Z,5.90
2023-02-17T04:37:58.196Z,6.53
2023-02-17T04:41:00.979Z,7.28
2023-02-17T04:44:03.092Z,4.55
2023-02-17T04:47:05.625Z,7.38
2023-02-17T04:50:09.311Z,5.68
2023-02-17T04:53:11.710Z,5.60
2023-02-17T04:56:13.747Z,7.95
2023-02-17T04:59:15.745Z,5.45
2023-02-17T05:02:17.806Z,5.50
2023-02-17T05:05:20.137Z,6.15
2023-02-17T05:08:22.220Z,6.03
2023-02-17T05:11:24.340Z,5.07
2023-02-17T05:14:26.539Z,7.03
2023-02-17T05:17:28.478Z,5.85
2023-02-17T05:20:30.547Z,5.65
2023-02-17T05:23:33.083Z,5.28
2023-02-17T05:26:35.620Z,4.82
2023-02-17T05:29:37.632Z,5.97
2023-02-17T05:32:39.649Z,6.10
2023-02-17T05:35:41.715Z,6.07
2023-02-17T05:38:44.030Z,4.53
2023-02-17T05:41:46.042Z,5.07
2023-02-17T05:44:48.133Z,6.10
2023-02-17T05:47:50.599Z,5.95
2023-02-17T05:50:55.043Z,7.20
2023-02-17T05:53:57.422Z,4.50
2023-02-17T05:56:59.406Z,4.85
2023-02-17T06:00:01.437Z,5.03
2023-02-17T06:03:14.432Z,5.30
2023-02-17T06:06:16.639Z,6.82
2023-02-17T06:09:18.732Z,7.40
2023-02-17T06:12:20.796Z,4.13
2023-02-17T06:15:22.955Z,5.25
2023-02-17T06:18:26.479Z,6.38
2023-02-17T06:21:29.264Z,4.28
2023-02-17T06:24:31.352Z,6.63
2023-02-17T06:27:34.589Z,6.97
2023-02-17T06:30:36.436Z,4.85
2023-02-17T06:33:38.325Z,4.25
2023-02-17T06:36:40.289Z,5.28
2023-02-17T06:39:42.238Z,4.53
2023-02-17T06:42:45.167Z,4.72
2023-02-17T06:45:47.314Z,4.15
2023-02-17T06:48:49.190Z,4.35
2023-02-17T06:51:51.228Z,4.32
2023-02-17T06:54:55.885Z,4.63
2023-02-17T06:57:57.923Z,4.93
2023-02-17T07:00:59.831Z,4.50
2023-02-17T07:04:02.036Z,3.55
2023-02-17T07:07:04.516Z,4.30
2023-02-17T07:10:07.258Z,4.68
2023-02-17T07:16:13.394Z,5.65
2023-02-17T07:19:15.251Z,5.70
2023-02-17T07:22:17.409Z,7.20
2023-02-17T07:25:19.638Z,5.05
2023-02-17T07:28:21.752Z,5.15
2023-02-17T07:31:24.613Z,4.15
2023-02-17T07:34:26.580Z,3.83
2023-02-17T07:37:28.404Z,6.97
2023-02-17T07:40:30.307Z,6.70
2023-02-17T07:43:32.376Z,4.72
2023-02-17T07:46:34.260Z,5.00
2023-02-17T07:49:36.160Z,5.50
2023-02-17T07:52:38.266Z,4.25
2023-02-17T07:55:40.152Z,5.28
2023-02-17T07:58:43.591Z,5.35
2023-02-17T08:01:45.491Z,5.30
2023-02-17T08:04:47.534Z,5.28
2023-02-17T08:07:49.460Z,4.65
2023-02-17T08:10:51.428Z,5.68
2023-02-17T08:13:53.386Z,5.13
2023-02-17T08:16:55.310Z,8.27
2023-02-17T08:19:57.301Z,5.80
2023-02-17T08:22:59.218Z,4.53
2023-02-17T08:26:01.356Z,7.47
2023-02-17T08:29:03.435Z,6.63
2023-02-17T08:32:05.557Z,8.00
2023-02-17T08:35:07.925Z,6.72
2023-02-17T08:38:09.898Z,6.75
2023-02-17T08:41:23.380Z,8.52
2023-02-17T08:44:25.453Z,8.70
2023-02-17T08:47:27.388Z,6.13
2023-02-17T08:50:29.935Z,5.20
2023-02-17T08:53:32.537Z,7.13
2023-02-17T08:56:36.368Z,5.63
2023-02-17T08:59:38.398Z,6.07
2023-02-17T09:02:40.253Z,5.15
2023-02-17T09:05:42.267Z,6.05
2023-02-17T09:08:47.188Z,7.03
2023-02-17T09:11:49.730Z,4.72
2023-02-17T09:17:53.397Z,5.85
2023-02-17T09:20:55.516Z,4.93
2023-02-17T09:23:57.455Z,5.32
2023-02-17T09:26:59.433Z,5.93
2023-02-17T09:30:01.822Z,5.97
2023-02-17T09:33:04.059Z,5.95
2023-02-17T09:36:08.549Z,5.15
2023-02-17T09:39:13.559Z,8.13
2023-02-17T09:42:28.729Z,6.38
2023-02-17T09:45:35.901Z,4.88
2023-02-17T09:48:39.720Z,4.72
2023-02-17T09:52:08.849Z,4.53
2023-02-17T09:55:23.163Z,6.50
2023-02-17T09:58:55.930Z,5.50
2023-02-17T10:02:00.929Z,5.18
2023-02-17T10:05:09.185Z,4.97
2023-02-17T10:08:16.943Z,5.07
2023-02-17T10:11:43.960Z,4.65
2023-02-17T10:14:52.136Z,6.22
2023-02-17T10:17:59.498Z,6.38
2023-02-17T10:21:12.827Z,4.88
2023-02-17T10:24:15.179Z,4.50
2023-02-17T10:27:36.135Z,5.93
2023-02-17T10:30:50.265Z,5.53
2023-02-17T10:34:27.621Z,5.68
2023-02-17T10:37:57.999Z,5.88
2023-02-17T10:41:01.926Z,4.78
2023-02-17T10:44:09.200Z,7.20
2023-02-17T10:47:11.516Z,6.05
2023-02-17T10:50:24.806Z,5.28
2023-02-17T10:53:35.774Z,6.72
2023-02-17T10:56:44.436Z,8.90
2023-02-17T10:59:48.266Z,6.80
2023-02-17T11:02:53.041Z,5.78
2023-02-17T11:05:59.540Z,7.43
2023-02-17T11:09:05.007Z,7.57
2023-02-17T11:12:20.779Z,6.95
2023-02-17T11:15:30.211Z,6.63
2023-02-17T11:18:35.650Z,5.78
2023-02-17T11:21:43.870Z,5.97
2023-02-17T11:24:58.660Z,7.68
2023-02-17T11:28:11.736Z,6.25
2023-02-17T11:31:28.605Z,7.25
2023-02-17T11:34:32.545Z,8.13
2023-02-17T11:37:42.237Z,6.03
2023-02-17T11:41:02.718Z,5.65
2023-02-17T11:44:06.551Z,8.98
2023-02-17T11:47:29.148Z,6.75
2023-02-17T12:04:12.206Z,8.75
2023-02-17T12:07:14.058Z,8.55
2023-02-17T12:10:32.875Z,6.53
2023-02-17T12:13:49.713Z,6.68
2023-02-17T12:17:13.356Z,6.82
2023-02-17T12:20:58.538Z,6.75
2023-02-17T12:24:12.770Z,6.05
2023-02-17T12:27:36.457Z,6.72
2023-02-17T12:30:58.514Z,7.18
2023-02-17T12:34:10.757Z,5.80
2023-02-17T12:37:23.118Z,4.90
2023-02-17T12:40:41.260Z,8.75
2023-02-17T12:44:06.404Z,8.63
2023-02-17T12:47:38.081Z,5.35
2023-02-17T12:51:02.458Z,5.93
2023-02-17T12:54:12.641Z,7.38
2023-02-17T12:57:24.941Z,5.47
2023-02-17T13:00:26.780Z,5.43
2023-02-17T13:03:36.417Z,6.10
2023-02-17T13:06:44.820Z,7.05
2023-02-17T13:13:01.352Z,6.90
2023-02-17T13:16:14.166Z,5.63
2023-02-17T13:19:16.485Z,6.57
2023-02-17T13:22:24.429Z,7.20
2023-02-17T13:25:32.078Z,6.57
2023-02-17T13:28:37.091Z,6.00
2023-02-17T13:32:11.411Z,6.45
2023-02-17T13:35:25.246Z,6.53
2023-02-17T13:38:32.586Z,6.25
2023-02-17T13:41:47.900Z,5.80
2023-02-17T13:44:51.425Z,8.65
2023-02-17T13:47:56.721Z,6.80
2023-02-17T13:51:04.692Z,7.72
2023-02-17T13:54:08.622Z,7.40
2023-02-17T13:57:23.593Z,5.32
2023-02-17T14:00:33.310Z,6.93
2023-02-17T14:03:56.437Z,10.38
2023-02-17T14:07:00.399Z,6.05
2023-02-17T14:10:02.377Z,6.15
2023-02-17T14:13:04.731Z,6.85
2023-02-17T14:16:07.212Z,7.22
2023-02-17T14:19:12.793Z,7.55
2023-02-17T14:22:33.114Z,7.45
2023-02-17T14:25:37.721Z,7.95
2023-02-17T14:28:40.327Z,7.00
2023-02-17T14:31:44.859Z,8.77
2023-02-17T14:34:53.030Z,6.57
2023-02-17T14:37:54.954Z,5.70
2023-02-17T14:40:59.125Z,5.65
2023-02-17T14:44:01.695Z,5.63
2023-02-17T14:47:03.803Z,7.35
2023-02-17T14:50:06.106Z,5.22
2023-02-17T14:53:17.033Z,4.80
2023-02-17T14:56:31.799Z,7.80
2023-02-17T14:59:40.181Z,6.05
2023-02-17T15:02:42.076Z,4.53
2023-02-17T15:05:44.352Z,5.47
2023-02-17T15:08:47.528Z,7.97
2023-02-17T15:11:49.406Z,4.35
2023-02-17T15:14:51.422Z,5.43
2023-02-17T15:17:54.213Z,6.07
2023-02-17T15:20:57.398Z,4.90
2023-02-17T15:24:00.927Z,4.93
2023-02-17T15:27:04.523Z,4.22
2023-02-17T15:30:11.022Z,5.68
2023-02-17T15:33:13.780Z,5.38
2023-02-17T15:36:17.858Z,4.80
2023-02-17T15:39:20.996Z,4.80
2023-02-17T15:42:22.908Z,4.55
2023-02-17T15:45:31.209Z,4.18
2023-02-17T15:48:41.350Z,4.60
2023-02-17T15:51:43.724Z,5.45
2023-02-17T15:54:45.831Z,3.70
2023-02-17T15:57:56.905Z,4.57
2023-02-17T16:01:01.698Z,4.15
2023-02-17T16:04:03.954Z,4.25
2023-02-17T16:07:05.813Z,5.80
2023-02-17T16:10:09.261Z,4.43
2023-02-17T16:13:15.601Z,5.32
2023-02-17T16:16:28.163Z,5.38
2023-02-17T16:19:30.330Z,5.30
2023-02-17T16:22:32.209Z,4.93
2023-02-17T16:25:34.320Z,5.25
2023-02-17T16:28:36.620Z,4.60
2023-02-17T16:31:38.701Z,5.18
2023-02-17T16:34:41.020Z,4.40
2023-02-17T16:37:50.794Z,5.10
2023-02-17T16:40:59.219Z,6.07
2023-02-17T16:44:01.150Z,4.90
2023-02-17T16:47:03.600Z,5.55
2023-02-17T16:50:08.202Z,5.78
2023-02-17T16:53:15.032Z,5.55
2023-02-17T16:56:31.826Z,6.13
2023-02-17T16:59:33.898Z,6.28
2023-02-17T17:02:37.107Z,7.07
2023-02-17T17:05:46.152Z,5.53
2023-02-17T17:08:48.728Z,5.55
2023-02-17T17:14:54.537Z,5.40
2023-02-17T17:18:05.925Z,5.70
2023-02-17T17:21:07.844Z,5.85
2023-02-17T17:24:09.955Z,6.13
2023-02-17T17:27:11.969Z,4.88
2023-02-17T17:30:20.259Z,5.50
2023-02-17T17:33:22.175Z,6.00
2023-02-17T17:39:39.252Z,6.75
2023-02-17T17:42:41.208Z,6.47
2023-02-17T17:45:43.121Z,6.70
2023-02-17T17:48:45.601Z,6.85
2023-02-17T17:54:49.935Z,6.80
2023-02-17T17:57:51.799Z,7.05
2023-02-17T18:00:53.970Z,6.20
2023-02-17T18:03:56.149Z,6.38
2023-02-17T18:07:01.160Z,7.88
2023-02-17T18:10:11.723Z,5.88
2023-02-17T18:13:14.135Z,6.90
2023-02-17T18:16:17.884Z,6.28
2023-02-17T18:19:20.457Z,6.72
2023-02-17T18:22:22.905Z,7.30
2023-02-17T18:25:24.989Z,6.13
2023-02-17T18:28:27.148Z,7.75
2023-02-17T18:31:29.774Z,6.40
2023-02-17T18:34:39.297Z,6.93
2023-02-17T18:37:42.063Z,6.40
2023-02-17T18:40:46.276Z,8.00
2023-02-17T18:43:56.236Z,7.97
2023-02-17T18:46:58.312Z,6.53
2023-02-17T18:50:00.380Z,6.47
2023-02-17T18:53:04.924Z,7.85
2023-02-17T18:59:20.291Z,7.13
2023-02-17T19:02:22.899Z,7.60
2023-02-17T19:05:27.806Z,8.05
2023-02-17T19:08:30.575Z,6.70
2023-02-17T19:11:33.760Z,7.00
2023-02-17T19:14:35.970Z,7.22
2023-02-17T19:17:37.808Z,6.55
2023-02-17T19:20:44.095Z,7.15
2023-02-17T19:23:53.123Z,8.38
2023-02-17T19:26:55.689Z,7.35
2023-02-17T19:29:57.770Z,6.45
2023-02-17T19:32:59.611Z,7.75
2023-02-17T19:36:23.427Z,8.00
2023-02-17T19:39:25.455Z,5.70
2023-02-17T19:42:27.643Z,7.40
2023-02-17T19:48:37.254Z,6.88
2023-02-17T19:51:41.424Z,7.10
2023-02-17T19:54:45.354Z,7.07
2023-02-17T20:01:11.336Z,6.30
2023-02-17T20:07:20.266Z,6.55
2023-02-17T20:10:23.779Z,5.55
2023-02-17T20:13:27.218Z,6.28
2023-02-17T20:16:31.179Z,6.28
2023-02-17T20:22:40.032Z,5.78
2023-02-17T20:25:42.819Z,6.65
2023-02-17T20:28:46.332Z,6.07
2023-02-17T20:31:48.600Z,7.47
2023-02-17T20:34:52.672Z,5.72
2023-02-17T20:37:54.650Z,5.97
2023-02-17T20:40:56.488Z,6.53
2023-02-17T20:43:58.323Z,5.53
2023-02-17T20:47:01.141Z,5.32
2023-02-17T20:50:04.057Z,4.65
2023-02-17T20:53:07.009Z,5.95
2023-02-17T20:56:23.370Z,4.75
2023-02-17T20:59:25.397Z,4.72
2023-02-17T21:02:34.516Z,5.22
2023-02-17T21:05:36.795Z,5.45
2023-02-17T21:08:40.633Z,4.97
2023-02-17T21:11:43.273Z,5.40
2023-02-17T21:14:45.508Z,5.50
2023-02-17T21:17:47.726Z,5.22
2023-02-17T21:20:49.608Z,4.95
2023-02-17T21:23:51.772Z,4.22
2023-02-17T21:26:54.003Z,4.65
2023-02-17T21:29:56.234Z,6.40
2023-02-17T21:32:58.183Z,4.30
2023-02-17T21:36:05.341Z,3.70
2023-02-17T21:39:07.617Z,4.68
2023-02-17T21:42:11.011Z,5.93
2023-02-17T21:45:16.543Z,4.60
2023-02-17T21:48:18.779Z,4.25
2023-02-17T21:51:21.773Z,5.55
2023-02-17T21:57:40.788Z,5.30
2023-02-17T22:00:42.848Z,6.30
2023-02-17T22:03:44.905Z,4.57
2023-02-17T22:06:47.620Z,5.10
2023-02-17T22:09:51.330Z,5.35
2023-02-17T22:12:58.479Z,6.35
2023-02-17T22:16:00.438Z,7.40
2023-02-17T22:19:03.545Z,6.78
2023-02-17T22:22:05.535Z,4.82
2023-02-17T22:25:08.762Z,5.88
2023-02-17T22:28:14.123Z,5.80
2023-02-17T22:31:20.032Z,6.03
2023-02-17T22:34:23.331Z,5.20
2023-02-17T22:37:25.295Z,6.22
2023-02-17T22:40:27.305Z,5.53
2023-02-17T22:43:29.216Z,5.40
2023-02-17T22:46:31.594Z,4.57
2023-02-17T22:49:35.500Z,4.55
2023-02-17T22:52:37.672Z,4.50
2023-02-17T22:55:39.857Z,4.90
2023-02-17T22:58:42.911Z,5.75
2023-02-17T23:01:45.410Z,4.03
2023-02-17T23:08:01.474Z,4.50
2023-02-17T23:11:10.718Z,4.38
2023-02-17T23:14:14.272Z,4.78
2023-02-17T23:17:16.101Z,4.00
2023-02-17T23:20:18.207Z,5.60
2023-02-17T23:23:22.132Z,4.93
2023-02-17T23:26:24.336Z,3.80
2023-02-17T23:29:26.981Z,4.60
2023-02-17T23:32:29.288Z,4.22
2023-02-17T23:35:31.347Z,4.40
2023-02-17T23:38:33.875Z,4.60
2023-02-17T23:44:38.247Z,3.88
2023-02-17T23:47:40.167Z,3.90
2023-02-17T23:50:42.556Z,4.93
2023-02-17T23:53:44.899Z,3.95
2023-02-17T23:56:46.773Z,3.85
2023-02-17T23:59:48.702Z,3.85
